sensor_id;sensor_type;location;lat;lon;timestamp;temperature;humidity
12335;DHT22;6233;51.560;9.986;2023-06-22T00:01:54;20.30;99.90
12335;DHT22;6233;51.560;9.986;2023-06-22T00:04:55;20.30;99.90
12335;DHT22;6233;51.560;9.986;2023-06-22T00:07:57;20.40;99.90
12335;DHT22;6233;51.560;9.986;2023-06-22T00:10:59;20.40;99.90
12335;DHT22;6233;51.560;9.986;2023-06-22T00:14:01;20.40;99.90
12335;DHT22;6233;51.560;9.986;2023-06-22T00:17:03;20.30;99.90
12335;DHT22;6233;51.560;9.986;2023-06-22T00:20:05;20.30;99.90
12335;DHT22;6233;51.560;9.986;2023-06-22T00:23:08;20.30;99.90
12335;DHT22;6233;51.560;9.986;2023-06-22T00:26:10;20.30;99.90
12335;DHT22;6233;51.560;9.986;2023-06-22T00:29:13;20.30;99.90
12335;DHT22;6233;51.560;9.986;2023-06-22T00:32:14;20.30;99.90
12335;DHT22;6233;51.560;9.986;2023-06-22T00:35:16;20.20;99.90
12335;DHT22;6233;51.560;9.986;2023-06-22T00:38:18;20.00;99.90
12335;DHT22;6233;51.560;9.986;2023-06-22T00:41:19;19.90;99.90
12335;DHT22;6233;51.560;9.986;2023-06-22T00:44:21;19.80;99.90
12335;DHT22;6233;51.560;9.986;2023-06-22T00:47:23;19.70;99.90
12335;DHT22;6233;51.560;9.986;2023-06-22T00:50:27;19.70;99.90
12335;DHT22;6233;51.560;9.986;2023-06-22T00:53:30;19.80;99.90
12335;DHT22;6233;51.560;9.986;2023-06-22T00:56:37;19.80;99.90
12335;DHT22;6233;51.560;9.986;2023-06-22T00:59:39;19.90;99.90
12335;DHT22;6233;51.560;9.986;2023-06-22T01:02:40;19.90;99.90
12335;DHT22;6233;51.560;9.986;2023-06-22T01:05:43;19.90;99.90
12335;DHT22;6233;51.560;9.986;2023-06-22T01:08:53;19.90;99.90
12335;DHT22;6233;51.560;9.986;2023-06-22T01:12:02;19.90;99.90
12335;DHT22;6233;51.560;9.986;2023-06-22T01:15:11;19.90;99.90
12335;DHT22;6233;51.560;9.986;2023-06-22T01:18:17;19.90;99.90
12335;DHT22;6233;51.560;9.986;2023-06-22T01:21:21;19.90;99.90
12335;DHT22;6233;51.560;9.986;2023-06-22T01:24:27;19.80;99.90
12335;DHT22;6233;51.560;9.986;2023-06-22T01:27:56;19.80;99.90
12335;DHT22;6233;51.560;9.986;2023-06-22T01:31:02;19.90;99.90
12335;DHT22;6233;51.560;9.986;2023-06-22T01:34:08;19.80;99.90
12335;DHT22;6233;51.560;9.986;2023-06-22T01:37:11;19.80;99.90
12335;DHT22;6233;51.560;9.986;2023-06-22T01:40:14;19.70;99.90
12335;DHT22;6233;51.560;9.986;2023-06-22T01:43:16;19.70;99.90
12335;DHT22;6233;51.560;9.986;2023-06-22T01:46:18;19.70;99.90
12335;DHT22;6233;51.560;9.986;2023-06-22T01:49:21;19.60;99.90
12335;DHT22;6233;51.560;9.986;2023-06-22T01:52:23;19.70;99.90
12335;DHT22;6233;51.560;9.986;2023-06-22T01:55:25;19.60;99.90
12335;DHT22;6233;51.560;9.986;2023-06-22T01:58:29;19.60;99.90
12335;DHT22;6233;51.560;9.986;2023-06-22T02:01:49;19.60;99.90
12335;DHT22;6233;51.560;9.986;2023-06-22T02:04:59;19.60;99.90
12335;DHT22;6233;51.560;9.986;2023-06-22T02:08:09;19.60;99.90
12335;DHT22;6233;51.560;9.986;2023-06-22T02:11:12;19.60;99.90
12335;DHT22;6233;51.560;9.986;2023-06-22T02:14:15;19.60;99.90
12335;DHT22;6233;51.560;9.986;2023-06-22T02:17:20;19.70;99.90
12335;DHT22;6233;51.560;9.986;2023-06-22T02:20:24;19.70;99.90
12335;DHT22;6233;51.560;9.986;2023-06-22T02:23:25;19.80;99.90
12335;DHT22;6233;51.560;9.986;2023-06-22T02:26:27;19.80;99.90
12335;DHT22;6233;51.560;9.986;2023-06-22T02:29:29;19.80;99.90
12335;DHT22;6233;51.560;9.986;2023-06-22T02:32:31;19.80;99.90
12335;DHT22;6233;51.560;9.986;2023-06-22T02:35:35;19.80;99.90
12335;DHT22;6233;51.560;9.986;2023-06-22T02:38:38;19.70;99.90
12335;DHT22;6233;51.560;9.986;2023-06-22T02:41:40;19.70;99.90
12335;DHT22;6233;51.560;9.986;2023-06-22T02:44:42;19.80;99.90
12335;DHT22;6233;51.560;9.986;2023-06-22T02:47:44;19.80;99.90
12335;DHT22;6233;51.560;9.986;2023-06-22T02:50:46;19.70;99.90
12335;DHT22;6233;51.560;9.986;2023-06-22T02:53:47;19.70;99.90
12335;DHT22;6233;51.560;9.986;2023-06-22T02:56:49;19.70;99.90
12335;DHT22;6233;51.560;9.986;2023-06-22T02:59:52;19.70;99.90
12335;DHT22;6233;51.560;9.986;2023-06-22T03:02:54;19.70;99.90
12335;DHT22;6233;51.560;9.986;2023-06-22T03:05:55;19.70;99.90
12335;DHT22;6233;51.560;9.986;2023-06-22T03:09:04;19.70;99.90
12335;DHT22;6233;51.560;9.986;2023-06-22T03:12:07;19.70;99.90
12335;DHT22;6233;51.560;9.986;2023-06-22T03:15:11;19.60;99.90
12335;DHT22;6233;51.560;9.986;2023-06-22T03:18:12;19.60;99.90
12335;DHT22;6233;51.560;9.986;2023-06-22T03:21:14;19.50;99.90
12335;DHT22;6233;51.560;9.986;2023-06-22T03:24:16;19.50;99.90
12335;DHT22;6233;51.560;9.986;2023-06-22T03:27:18;19.50;99.90
12335;DHT22;6233;51.560;9.986;2023-06-22T03:30:20;19.40;99.90
12335;DHT22;6233;51.560;9.986;2023-06-22T03:33:22;19.40;99.90
12335;DHT22;6233;51.560;9.986;2023-06-22T03:36:23;19.40;99.90
12335;DHT22;6233;51.560;9.986;2023-06-22T03:39:25;19.40;99.90
12335;DHT22;6233;51.560;9.986;2023-06-22T03:42:27;19.40;99.90
12335;DHT22;6233;51.560;9.986;2023-06-22T03:45:29;19.50;99.90
12335;DHT22;6233;51.560;9.986;2023-06-22T03:48:31;19.50;99.90
12335;DHT22;6233;51.560;9.986;2023-06-22T03:51:33;19.60;99.90
12335;DHT22;6233;51.560;9.986;2023-06-22T03:54:34;19.70;99.90
12335;DHT22;6233;51.560;9.986;2023-06-22T03:57:36;19.80;99.90
12335;DHT22;6233;51.560;9.986;2023-06-22T04:00:38;19.90;99.90
12335;DHT22;6233;51.560;9.986;2023-06-22T04:03:41;19.90;99.90
12335;DHT22;6233;51.560;9.986;2023-06-22T04:06:43;19.90;99.90
12335;DHT22;6233;51.560;9.986;2023-06-22T04:09:44;19.90;99.90
12335;DHT22;6233;51.560;9.986;2023-06-22T04:12:47;19.90;99.90
12335;DHT22;6233;51.560;9.986;2023-06-22T04:15:49;19.90;99.90
12335;DHT22;6233;51.560;9.986;2023-06-22T04:18:50;19.90;99.90
12335;DHT22;6233;51.560;9.986;2023-06-22T04:21:52;19.90;99.90
12335;DHT22;6233;51.560;9.986;2023-06-22T04:24:54;19.90;99.90
12335;DHT22;6233;51.560;9.986;2023-06-22T04:27:56;19.90;99.90
12335;DHT22;6233;51.560;9.986;2023-06-22T04:30:57;19.90;99.90
12335;DHT22;6233;51.560;9.986;2023-06-22T04:34:05;19.90;99.90
12335;DHT22;6233;51.560;9.986;2023-06-22T04:37:08;19.90;99.90
12335;DHT22;6233;51.560;9.986;2023-06-22T04:40:10;19.90;99.90
12335;DHT22;6233;51.560;9.986;2023-06-22T04:43:11;19.90;99.90
12335;DHT22;6233;51.560;9.986;2023-06-22T04:46:13;19.80;99.90
12335;DHT22;6233;51.560;9.986;2023-06-22T04:49:15;19.80;99.90
12335;DHT22;6233;51.560;9.986;2023-06-22T04:52:17;19.80;99.90
12335;DHT22;6233;51.560;9.986;2023-06-22T04:55:20;19.80;99.90
12335;DHT22;6233;51.560;9.986;2023-06-22T04:58:21;19.80;99.90
12335;DHT22;6233;51.560;9.986;2023-06-22T05:01:23;19.90;99.90
12335;DHT22;6233;51.560;9.986;2023-06-22T05:04:27;19.90;99.90
12335;DHT22;6233;51.560;9.986;2023-06-22T05:07:29;19.90;99.90
12335;DHT22;6233;51.560;9.986;2023-06-22T05:10:31;19.90;99.90
12335;DHT22;6233;51.560;9.986;2023-06-22T05:13:33;20.00;99.90
12335;DHT22;6233;51.560;9.986;2023-06-22T05:16:36;19.90;99.90
12335;DHT22;6233;51.560;9.986;2023-06-22T05:19:37;19.90;99.90
12335;DHT22;6233;51.560;9.986;2023-06-22T05:22:39;19.90;99.90
12335;DHT22;6233;51.560;9.986;2023-06-22T05:25:42;20.00;99.90
12335;DHT22;6233;51.560;9.986;2023-06-22T05:28:44;20.10;99.90
12335;DHT22;6233;51.560;9.986;2023-06-22T05:31:49;20.00;99.90
12335;DHT22;6233;51.560;9.986;2023-06-22T05:34:51;20.00;99.90
12335;DHT22;6233;51.560;9.986;2023-06-22T05:37:52;19.90;99.90
12335;DHT22;6233;51.560;9.986;2023-06-22T05:40:54;19.90;99.90
12335;DHT22;6233;51.560;9.986;2023-06-22T05:43:56;19.90;99.90
12335;DHT22;6233;51.560;9.986;2023-06-22T05:46:58;19.90;99.90
12335;DHT22;6233;51.560;9.986;2023-06-22T05:50:00;20.00;99.90
12335;DHT22;6233;51.560;9.986;2023-06-22T05:53:01;20.00;99.90
12335;DHT22;6233;51.560;9.986;2023-06-22T05:56:03;20.10;99.90
12335;DHT22;6233;51.560;9.986;2023-06-22T05:59:05;20.30;99.90
12335;DHT22;6233;51.560;9.986;2023-06-22T06:02:07;20.40;99.90
12335;DHT22;6233;51.560;9.986;2023-06-22T06:05:11;20.60;99.90
12335;DHT22;6233;51.560;9.986;2023-06-22T06:08:15;20.70;99.90
12335;DHT22;6233;51.560;9.986;2023-06-22T06:11:17;20.80;99.90
12335;DHT22;6233;51.560;9.986;2023-06-22T06:14:18;21.00;99.90
12335;DHT22;6233;51.560;9.986;2023-06-22T06:17:21;21.10;99.90
12335;DHT22;6233;51.560;9.986;2023-06-22T06:20:24;21.10;99.90
12335;DHT22;6233;51.560;9.986;2023-06-22T06:23:26;21.30;99.90
12335;DHT22;6233;51.560;9.986;2023-06-22T06:26:28;21.40;99.90
12335;DHT22;6233;51.560;9.986;2023-06-22T06:29:34;21.70;99.90
12335;DHT22;6233;51.560;9.986;2023-06-22T06:32:36;21.80;99.90
12335;DHT22;6233;51.560;9.986;2023-06-22T06:35:38;22.20;99.90
12335;DHT22;6233;51.560;9.986;2023-06-22T06:38:39;22.90;99.90
12335;DHT22;6233;51.560;9.986;2023-06-22T06:41:41;23.70;99.90
12335;DHT22;6233;51.560;9.986;2023-06-22T06:44:45;24.10;99.90
12335;DHT22;6233;51.560;9.986;2023-06-22T06:47:47;24.20;99.90
12335;DHT22;6233;51.560;9.986;2023-06-22T06:50:48;24.20;99.90
12335;DHT22;6233;51.560;9.986;2023-06-22T06:53:51;24.30;99.90
12335;DHT22;6233;51.560;9.986;2023-06-22T06:56:53;24.20;99.90
12335;DHT22;6233;51.560;9.986;2023-06-22T06:59:56;24.10;99.90
12335;DHT22;6233;51.560;9.986;2023-06-22T07:02:58;24.10;99.90
12335;DHT22;6233;51.560;9.986;2023-06-22T07:06:00;24.30;99.90
12335;DHT22;6233;51.560;9.986;2023-06-22T07:09:01;24.50;99.90
12335;DHT22;6233;51.560;9.986;2023-06-22T07:12:05;24.60;99.90
12335;DHT22;6233;51.560;9.986;2023-06-22T07:15:08;24.80;99.90
12335;DHT22;6233;51.560;9.986;2023-06-22T07:18:11;24.80;99.90
12335;DHT22;6233;51.560;9.986;2023-06-22T07:21:12;24.70;99.90
12335;DHT22;6233;51.560;9.986;2023-06-22T07:24:14;24.70;99.90
12335;DHT22;6233;51.560;9.986;2023-06-22T07:27:16;24.80;99.90
12335;DHT22;6233;51.560;9.986;2023-06-22T07:30:21;24.70;99.90
12335;DHT22;6233;51.560;9.986;2023-06-22T07:33:23;24.60;99.90
12335;DHT22;6233;51.560;9.986;2023-06-22T07:36:24;24.50;99.90
12335;DHT22;6233;51.560;9.986;2023-06-22T07:39:26;24.40;99.90
12335;DHT22;6233;51.560;9.986;2023-06-22T07:42:28;24.30;99.90
12335;DHT22;6233;51.560;9.986;2023-06-22T07:45:34;24.20;99.90
12335;DHT22;6233;51.560;9.986;2023-06-22T07:48:37;24.30;99.90
12335;DHT22;6233;51.560;9.986;2023-06-22T07:51:39;24.50;99.90
12335;DHT22;6233;51.560;9.986;2023-06-22T07:54:41;24.60;99.90
12335;DHT22;6233;51.560;9.986;2023-06-22T07:57:43;24.60;99.90
12335;DHT22;6233;51.560;9.986;2023-06-22T08:00:44;24.90;99.90
12335;DHT22;6233;51.560;9.986;2023-06-22T08:03:49;25.50;99.90
12335;DHT22;6233;51.560;9.986;2023-06-22T08:06:51;25.80;99.90
12335;DHT22;6233;51.560;9.986;2023-06-22T08:09:53;26.10;99.90
12335;DHT22;6233;51.560;9.986;2023-06-22T08:12:55;25.80;99.90
12335;DHT22;6233;51.560;9.986;2023-06-22T08:15:57;25.80;99.90
12335;DHT22;6233;51.560;9.986;2023-06-22T08:18:58;26.10;99.90
12335;DHT22;6233;51.560;9.986;2023-06-22T08:22:00;26.50;99.90
12335;DHT22;6233;51.560;9.986;2023-06-22T08:25:03;26.70;99.90
12335;DHT22;6233;51.560;9.986;2023-06-22T08:28:05;26.90;99.90
12335;DHT22;6233;51.560;9.986;2023-06-22T08:31:07;27.10;99.90
12335;DHT22;6233;51.560;9.986;2023-06-22T08:34:10;27.30;99.90
12335;DHT22;6233;51.560;9.986;2023-06-22T08:37:13;27.60;99.90
12335;DHT22;6233;51.560;9.986;2023-06-22T08:40:14;27.90;99.90
12335;DHT22;6233;51.560;9.986;2023-06-22T08:43:16;28.20;99.90
12335;DHT22;6233;51.560;9.986;2023-06-22T08:46:19;28.40;99.90
12335;DHT22;6233;51.560;9.986;2023-06-22T08:49:24;28.40;99.90
12335;DHT22;6233;51.560;9.986;2023-06-22T08:52:26;28.10;99.90
12335;DHT22;6233;51.560;9.986;2023-06-22T08:55:28;28.20;99.90
12335;DHT22;6233;51.560;9.986;2023-06-22T08:58:30;28.60;99.90
12335;DHT22;6233;51.560;9.986;2023-06-22T09:01:32;28.50;99.90
12335;DHT22;6233;51.560;9.986;2023-06-22T09:04:33;28.50;99.90
12335;DHT22;6233;51.560;9.986;2023-06-22T09:07:36;28.50;99.90
12335;DHT22;6233;51.560;9.986;2023-06-22T09:10:38;28.70;99.90
12335;DHT22;6233;51.560;9.986;2023-06-22T09:13:40;28.20;99.90
12335;DHT22;6233;51.560;9.986;2023-06-22T09:16:42;28.00;99.90
12335;DHT22;6233;51.560;9.986;2023-06-22T09:19:44;28.10;99.90
12335;DHT22;6233;51.560;9.986;2023-06-22T09:22:46;28.20;99.90
12335;DHT22;6233;51.560;9.986;2023-06-22T09:25:47;28.70;99.90
12335;DHT22;6233;51.560;9.986;2023-06-22T09:28:49;29.10;99.90
12335;DHT22;6233;51.560;9.986;2023-06-22T09:31:51;29.60;99.90
12335;DHT22;6233;51.560;9.986;2023-06-22T09:34:55;29.60;99.90
12335;DHT22;6233;51.560;9.986;2023-06-22T09:37:57;29.80;99.90
12335;DHT22;6233;51.560;9.986;2023-06-22T09:40:58;29.70;99.90
12335;DHT22;6233;51.560;9.986;2023-06-22T09:44:00;29.80;99.90
12335;DHT22;6233;51.560;9.986;2023-06-22T09:47:02;29.70;99.90
12335;DHT22;6233;51.560;9.986;2023-06-22T09:50:05;29.90;99.90
12335;DHT22;6233;51.560;9.986;2023-06-22T09:53:07;29.90;99.90
12335;DHT22;6233;51.560;9.986;2023-06-22T09:56:09;29.90;99.90
12335;DHT22;6233;51.560;9.986;2023-06-22T09:59:16;29.80;99.90
12335;DHT22;6233;51.560;9.986;2023-06-22T10:02:19;29.90;99.90
12335;DHT22;6233;51.560;9.986;2023-06-22T10:05:22;29.50;99.90
12335;DHT22;6233;51.560;9.986;2023-06-22T10:08:24;29.40;99.90
12335;DHT22;6233;51.560;9.986;2023-06-22T10:11:26;29.50;99.90
12335;DHT22;6233;51.560;9.986;2023-06-22T10:14:31;29.60;99.90
12335;DHT22;6233;51.560;9.986;2023-06-22T10:17:33;29.70;99.90
12335;DHT22;6233;51.560;9.986;2023-06-22T10:20:35;29.40;99.90
12335;DHT22;6233;51.560;9.986;2023-06-22T10:23:37;29.50;99.90
12335;DHT22;6233;51.560;9.986;2023-06-22T10:26:39;29.90;99.90
12335;DHT22;6233;51.560;9.986;2023-06-22T10:29:41;29.80;99.90
12335;DHT22;6233;51.560;9.986;2023-06-22T10:32:43;29.70;99.90
12335;DHT22;6233;51.560;9.986;2023-06-22T10:35:45;29.90;99.90
12335;DHT22;6233;51.560;9.986;2023-06-22T10:38:47;29.90;99.90
12335;DHT22;6233;51.560;9.986;2023-06-22T10:41:49;29.70;99.90
12335;DHT22;6233;51.560;9.986;2023-06-22T10:44:51;29.40;99.90
12335;DHT22;6233;51.560;9.986;2023-06-22T10:47:53;29.30;99.90
12335;DHT22;6233;51.560;9.986;2023-06-22T10:50:55;29.10;99.90
12335;DHT22;6233;51.560;9.986;2023-06-22T10:53:56;29.10;99.90
12335;DHT22;6233;51.560;9.986;2023-06-22T10:56:58;29.10;99.90
12335;DHT22;6233;51.560;9.986;2023-06-22T11:00:00;29.10;99.90
12335;DHT22;6233;51.560;9.986;2023-06-22T11:03:02;29.00;99.90
12335;DHT22;6233;51.560;9.986;2023-06-22T11:06:04;28.90;99.90
12335;DHT22;6233;51.560;9.986;2023-06-22T11:09:06;28.90;99.90
12335;DHT22;6233;51.560;9.986;2023-06-22T11:12:27;28.90;99.90
12335;DHT22;6233;51.560;9.986;2023-06-22T11:15:28;28.90;99.90
12335;DHT22;6233;51.560;9.986;2023-06-22T11:18:31;28.90;99.90
12335;DHT22;6233;51.560;9.986;2023-06-22T11:21:35;29.00;99.90
12335;DHT22;6233;51.560;9.986;2023-06-22T11:24:37;28.80;99.90
12335;DHT22;6233;51.560;9.986;2023-06-22T11:27:39;28.60;99.90
12335;DHT22;6233;51.560;9.986;2023-06-22T11:30:41;28.40;99.90
12335;DHT22;6233;51.560;9.986;2023-06-22T11:33:43;28.50;99.90
12335;DHT22;6233;51.560;9.986;2023-06-22T11:36:46;28.60;99.90
12335;DHT22;6233;51.560;9.986;2023-06-22T11:39:49;28.40;99.90
12335;DHT22;6233;51.560;9.986;2023-06-22T11:43:06;28.30;99.90
12335;DHT22;6233;51.560;9.986;2023-06-22T11:46:08;28.10;99.90
12335;DHT22;6233;51.560;9.986;2023-06-22T11:49:10;27.90;99.90
12335;DHT22;6233;51.560;9.986;2023-06-22T11:52:12;27.70;99.90
12335;DHT22;6233;51.560;9.986;2023-06-22T11:55:13;27.60;99.90
12335;DHT22;6233;51.560;9.986;2023-06-22T11:58:15;27.60;99.90
12335;DHT22;6233;51.560;9.986;2023-06-22T12:01:17;27.80;99.90
12335;DHT22;6233;51.560;9.986;2023-06-22T12:04:19;27.90;99.90
12335;DHT22;6233;51.560;9.986;2023-06-22T12:07:20;28.10;99.90
12335;DHT22;6233;51.560;9.986;2023-06-22T12:10:23;28.10;99.90
12335;DHT22;6233;51.560;9.986;2023-06-22T12:13:24;28.10;99.90
12335;DHT22;6233;51.560;9.986;2023-06-22T12:16:26;28.00;99.90
12335;DHT22;6233;51.560;9.986;2023-06-22T12:19:28;27.90;99.90
12335;DHT22;6233;51.560;9.986;2023-06-22T12:26:10;28.00;99.90
12335;DHT22;6233;51.560;9.986;2023-06-22T12:29:12;27.90;99.90
12335;DHT22;6233;51.560;9.986;2023-06-22T12:32:14;27.80;99.90
12335;DHT22;6233;51.560;9.986;2023-06-22T12:35:16;27.70;99.90
12335;DHT22;6233;51.560;9.986;2023-06-22T12:38:17;27.80;99.90
12335;DHT22;6233;51.560;9.986;2023-06-22T12:41:19;27.90;99.90
12335;DHT22;6233;51.560;9.986;2023-06-22T12:44:23;28.10;99.90
12335;DHT22;6233;51.560;9.986;2023-06-22T12:47:25;28.20;99.90
12335;DHT22;6233;51.560;9.986;2023-06-22T12:50:27;28.10;99.90
12335;DHT22;6233;51.560;9.986;2023-06-22T12:53:29;28.10;99.90
12335;DHT22;6233;51.560;9.986;2023-06-22T12:56:31;28.10;99.90
12335;DHT22;6233;51.560;9.986;2023-06-22T12:59:33;28.00;99.90
12335;DHT22;6233;51.560;9.986;2023-06-22T13:02:35;27.90;99.90
12335;DHT22;6233;51.560;9.986;2023-06-22T13:05:36;27.70;99.90
12335;DHT22;6233;51.560;9.986;2023-06-22T13:08:39;27.70;99.90
12335;DHT22;6233;51.560;9.986;2023-06-22T13:11:44;27.80;99.90
12335;DHT22;6233;51.560;9.986;2023-06-22T13:14:46;27.80;99.90
12335;DHT22;6233;51.560;9.986;2023-06-22T13:17:49;27.80;99.90
12335;DHT22;6233;51.560;9.986;2023-06-22T13:20:51;27.90;99.90
12335;DHT22;6233;51.560;9.986;2023-06-22T13:23:56;28.00;99.90
12335;DHT22;6233;51.560;9.986;2023-06-22T13:26:57;28.00;99.90
12335;DHT22;6233;51.560;9.986;2023-06-22T13:29:59;28.00;99.90
12335;DHT22;6233;51.560;9.986;2023-06-22T13:33:01;28.10;99.90
12335;DHT22;6233;51.560;9.986;2023-06-22T13:36:03;28.00;99.90
12335;DHT22;6233;51.560;9.986;2023-06-22T13:39:05;27.90;99.90
12335;DHT22;6233;51.560;9.986;2023-06-22T13:42:07;28.00;99.90
12335;DHT22;6233;51.560;9.986;2023-06-22T13:45:09;27.90;99.90
12335;DHT22;6233;51.560;9.986;2023-06-22T13:48:11;27.80;99.90
12335;DHT22;6233;51.560;9.986;2023-06-22T13:51:13;27.80;99.90
12335;DHT22;6233;51.560;9.986;2023-06-22T13:54:15;27.90;99.90
12335;DHT22;6233;51.560;9.986;2023-06-22T13:57:30;27.90;99.90
12335;DHT22;6233;51.560;9.986;2023-06-22T14:00:32;27.80;99.90
12335;DHT22;6233;51.560;9.986;2023-06-22T14:03:34;27.90;99.90
12335;DHT22;6233;51.560;9.986;2023-06-22T14:06:37;28.00;99.90
12335;DHT22;6233;51.560;9.986;2023-06-22T14:09:39;28.00;99.90
12335;DHT22;6233;51.560;9.986;2023-06-22T14:12:41;27.90;99.90
12335;DHT22;6233;51.560;9.986;2023-06-22T14:15:42;28.00;99.90
12335;DHT22;6233;51.560;9.986;2023-06-22T14:18:45;27.90;99.90
12335;DHT22;6233;51.560;9.986;2023-06-22T14:30:43;27.60;99.90
12335;DHT22;6233;51.560;9.986;2023-06-22T14:51:14;27.00;99.90
12335;DHT22;6233;51.560;9.986;2023-06-22T14:54:18;26.90;99.90
12335;DHT22;6233;51.560;9.986;2023-06-22T14:57:19;26.90;99.90
12335;DHT22;6233;51.560;9.986;2023-06-22T15:00:21;26.70;99.90
12335;DHT22;6233;51.560;9.986;2023-06-22T15:03:23;26.60;99.90
12335;DHT22;6233;51.560;9.986;2023-06-22T15:06:29;26.60;99.90
12335;DHT22;6233;51.560;9.986;2023-06-22T15:09:30;26.50;99.90
12335;DHT22;6233;51.560;9.986;2023-06-22T15:12:33;26.50;99.90
12335;DHT22;6233;51.560;9.986;2023-06-22T15:15:34;26.40;99.90
12335;DHT22;6233;51.560;9.986;2023-06-22T15:18:36;26.30;99.90
12335;DHT22;6233;51.560;9.986;2023-06-22T15:21:38;26.30;99.90
12335;DHT22;6233;51.560;9.986;2023-06-22T15:24:40;26.00;99.90
12335;DHT22;6233;51.560;9.986;2023-06-22T15:27:42;25.70;99.90
12335;DHT22;6233;51.560;9.986;2023-06-22T15:30:43;25.00;99.90
12335;DHT22;6233;51.560;9.986;2023-06-22T15:33:49;24.20;99.90
12335;DHT22;6233;51.560;9.986;2023-06-22T15:36:51;23.20;99.90
12335;DHT22;6233;51.560;9.986;2023-06-22T15:39:53;22.60;99.90
12335;DHT22;6233;51.560;9.986;2023-06-22T15:42:57;22.20;99.90
12335;DHT22;6233;51.560;9.986;2023-06-22T15:45:59;22.00;99.90
12335;DHT22;6233;51.560;9.986;2023-06-22T15:49:01;21.80;99.90
12335;DHT22;6233;51.560;9.986;2023-06-22T15:52:03;21.70;99.90
12335;DHT22;6233;51.560;9.986;2023-06-22T15:55:05;21.70;99.90
12335;DHT22;6233;51.560;9.986;2023-06-22T15:58:07;21.60;99.90
12335;DHT22;6233;51.560;9.986;2023-06-22T16:01:10;21.50;99.90
12335;DHT22;6233;51.560;9.986;2023-06-22T16:04:12;21.30;99.90
12335;DHT22;6233;51.560;9.986;2023-06-22T16:07:14;21.20;99.90
12335;DHT22;6233;51.560;9.986;2023-06-22T16:10:15;21.10;99.90
12335;DHT22;6233;51.560;9.986;2023-06-22T16:13:19;21.00;99.90
12335;DHT22;6233;51.560;9.986;2023-06-22T16:16:20;20.80;99.90
12335;DHT22;6233;51.560;9.986;2023-06-22T16:19:22;20.60;99.90
12335;DHT22;6233;51.560;9.986;2023-06-22T16:22:24;20.50;99.90
12335;DHT22;6233;51.560;9.986;2023-06-22T16:25:26;20.40;99.90
12335;DHT22;6233;51.560;9.986;2023-06-22T16:28:28;20.30;99.90
12335;DHT22;6233;51.560;9.986;2023-06-22T16:31:30;20.20;99.90
12335;DHT22;6233;51.560;9.986;2023-06-22T16:34:31;20.20;99.90
12335;DHT22;6233;51.560;9.986;2023-06-22T16:37:33;20.20;99.90
12335;DHT22;6233;51.560;9.986;2023-06-22T16:40:35;20.10;99.90
12335;DHT22;6233;51.560;9.986;2023-06-22T16:43:37;20.20;99.90
12335;DHT22;6233;51.560;9.986;2023-06-22T16:46:42;20.20;99.90
12335;DHT22;6233;51.560;9.986;2023-06-22T16:49:45;20.30;99.90
12335;DHT22;6233;51.560;9.986;2023-06-22T16:52:48;20.30;99.90
12335;DHT22;6233;51.560;9.986;2023-06-22T16:55:50;20.40;99.90
12335;DHT22;6233;51.560;9.986;2023-06-22T16:58:57;20.50;99.90
12335;DHT22;6233;51.560;9.986;2023-06-22T17:02:02;20.60;99.90
12335;DHT22;6233;51.560;9.986;2023-06-22T17:05:05;20.60;99.90
12335;DHT22;6233;51.560;9.986;2023-06-22T17:08:09;20.60;99.90
12335;DHT22;6233;51.560;9.986;2023-06-22T17:11:15;20.60;99.90
12335;DHT22;6233;51.560;9.986;2023-06-22T17:14:17;20.60;99.90
12335;DHT22;6233;51.560;9.986;2023-06-22T17:17:19;20.60;99.90
12335;DHT22;6233;51.560;9.986;2023-06-22T17:20:23;20.60;99.90
12335;DHT22;6233;51.560;9.986;2023-06-22T17:23:27;20.60;99.90
12335;DHT22;6233;51.560;9.986;2023-06-22T17:26:30;20.60;99.90
12335;DHT22;6233;51.560;9.986;2023-06-22T17:29:33;20.60;99.90
12335;DHT22;6233;51.560;9.986;2023-06-22T17:32:36;20.60;99.90
12335;DHT22;6233;51.560;9.986;2023-06-22T17:35:50;20.60;99.90
12335;DHT22;6233;51.560;9.986;2023-06-22T17:38:59;20.60;99.90
12335;DHT22;6233;51.560;9.986;2023-06-22T17:42:00;20.60;99.90
12335;DHT22;6233;51.560;9.986;2023-06-22T17:45:02;20.60;99.90
12335;DHT22;6233;51.560;9.986;2023-06-22T17:48:07;20.70;99.90
12335;DHT22;6233;51.560;9.986;2023-06-22T17:51:09;20.60;99.90
12335;DHT22;6233;51.560;9.986;2023-06-22T17:54:14;20.50;99.90
12335;DHT22;6233;51.560;9.986;2023-06-22T17:57:19;20.30;99.90
12335;DHT22;6233;51.560;9.986;2023-06-22T18:00:21;20.20;99.90
12335;DHT22;6233;51.560;9.986;2023-06-22T18:03:25;20.20;99.90
12335;DHT22;6233;51.560;9.986;2023-06-22T18:06:28;20.10;99.90
12335;DHT22;6233;51.560;9.986;2023-06-22T18:09:31;20.10;99.90
12335;DHT22;6233;51.560;9.986;2023-06-22T18:12:34;20.10;99.90
12335;DHT22;6233;51.560;9.986;2023-06-22T18:15:37;20.10;99.90
12335;DHT22;6233;51.560;9.986;2023-06-22T18:18:39;20.10;99.90
12335;DHT22;6233;51.560;9.986;2023-06-22T18:21:44;20.20;99.90
12335;DHT22;6233;51.560;9.986;2023-06-22T18:24:49;20.20;99.90
12335;DHT22;6233;51.560;9.986;2023-06-22T18:27:51;20.10;99.90
12335;DHT22;6233;51.560;9.986;2023-06-22T18:30:53;20.00;99.90
12335;DHT22;6233;51.560;9.986;2023-06-22T18:33:58;19.90;99.90
12335;DHT22;6233;51.560;9.986;2023-06-22T18:37:03;19.80;99.90
12335;DHT22;6233;51.560;9.986;2023-06-22T18:40:07;19.80;99.90
12335;DHT22;6233;51.560;9.986;2023-06-22T18:43:09;19.80;99.90
12335;DHT22;6233;51.560;9.986;2023-06-22T18:46:34;19.60;99.90
12335;DHT22;6233;51.560;9.986;2023-06-22T18:52:42;19.40;99.90
12335;DHT22;6233;51.560;9.986;2023-06-22T18:55:50;19.30;99.90
12335;DHT22;6233;51.560;9.986;2023-06-22T18:58:56;19.30;99.90
12335;DHT22;6233;51.560;9.986;2023-06-22T19:02:01;19.30;99.90
12335;DHT22;6233;51.560;9.986;2023-06-22T19:08:13;19.20;99.90
12335;DHT22;6233;51.560;9.986;2023-06-22T19:11:15;19.10;99.90
12335;DHT22;6233;51.560;9.986;2023-06-22T19:14:21;19.10;99.90
12335;DHT22;6233;51.560;9.986;2023-06-22T19:17:23;19.00;99.90
12335;DHT22;6233;51.560;9.986;2023-06-22T19:24:48;19.00;99.90
12335;DHT22;6233;51.560;9.986;2023-06-22T19:27:51;18.90;99.90
12335;DHT22;6233;51.560;9.986;2023-06-22T19:30:58;19.00;99.90
12335;DHT22;6233;51.560;9.986;2023-06-22T19:34:21;19.00;99.90
12335;DHT22;6233;51.560;9.986;2023-06-22T19:54:29;18.90;99.90
12335;DHT22;6233;51.560;9.986;2023-06-22T19:57:35;18.90;99.90
12335;DHT22;6233;51.560;9.986;2023-06-22T20:00:38;18.90;99.90
12335;DHT22;6233;51.560;9.986;2023-06-22T20:03:40;18.90;99.90
12335;DHT22;6233;51.560;9.986;2023-06-22T20:07:04;18.90;99.90
12335;DHT22;6233;51.560;9.986;2023-06-22T20:10:19;18.90;99.90
12335;DHT22;6233;51.560;9.986;2023-06-22T20:13:21;19.00;99.90
12335;DHT22;6233;51.560;9.986;2023-06-22T20:16:23;19.00;99.90
12335;DHT22;6233;51.560;9.986;2023-06-22T20:19:38;19.00;99.90
12335;DHT22;6233;51.560;9.986;2023-06-22T20:22:46;19.00;99.90
12335;DHT22;6233;51.560;9.986;2023-06-22T20:25:49;18.90;99.90
12335;DHT22;6233;51.560;9.986;2023-06-22T20:28:53;18.90;99.90
12335;DHT22;6233;51.560;9.986;2023-06-22T20:32:08;18.90;99.90